Reinosa, Spain
Current Conditions -  °F | °C
As of 11:00 PM on Friday 21 Nov 2014 (Local Time) from LEXJ Reporting Station
Clear Clear  
Wind Chill: 70°   Ceiling: Unl
Heat Index: 70°   Visibility: 6mi
Dew Point: 48°   Wind: 15mph
Humidity: 46%   Direction: 200°SSW
Pressure: 29.85"   Gusts: NA
Location:  43°N, 4.14°W
Report Text: LEXJ 212200Z 20013KT 160V240 CAVOK 21/09 Q1011
Loading
Personal Weather Stations






























Interactive Weather Map New forecast layout! Learn more

10-Day Weather Forecast

Advertisements
Track Severe Weather on mobile